sensor_id;sensor_type;location;lat;lon;timestamp;temperature;humidity
46091;DHT22;31826;53.572;10.170;2023-05-17T00:02:17;9.60;99.90
46091;DHT22;31826;53.572;10.170;2023-05-17T00:04:42;9.60;99.90
46091;DHT22;31826;53.572;10.170;2023-05-17T00:07:09;9.60;99.90
46091;DHT22;31826;53.572;10.170;2023-05-17T00:09:35;9.70;99.90
46091;DHT22;31826;53.572;10.170;2023-05-17T00:12:01;9.60;99.90
46091;DHT22;31826;53.572;10.170;2023-05-17T00:14:27;9.60;99.90
46091;DHT22;31826;53.572;10.170;2023-05-17T00:16:52;9.50;99.90
46091;DHT22;31826;53.572;10.170;2023-05-17T00:19:18;9.40;99.90
46091;DHT22;31826;53.572;10.170;2023-05-17T00:21:44;9.40;99.90
46091;DHT22;31826;53.572;10.170;2023-05-17T00:24:10;9.40;99.90
46091;DHT22;31826;53.572;10.170;2023-05-17T00:26:35;9.30;99.90
46091;DHT22;31826;53.572;10.170;2023-05-17T00:29:01;9.30;99.90
46091;DHT22;31826;53.572;10.170;2023-05-17T00:31:28;9.20;99.90
46091;DHT22;31826;53.572;10.170;2023-05-17T00:33:53;9.20;99.90
46091;DHT22;31826;53.572;10.170;2023-05-17T00:36:19;9.10;99.90
46091;DHT22;31826;53.572;10.170;2023-05-17T00:38:45;9.00;99.90
46091;DHT22;31826;53.572;10.170;2023-05-17T00:41:11;9.00;99.90
46091;DHT22;31826;53.572;10.170;2023-05-17T00:43:37;8.90;99.90
46091;DHT22;31826;53.572;10.170;2023-05-17T00:46:03;9.00;99.90
46091;DHT22;31826;53.572;10.170;2023-05-17T00:48:29;8.80;99.90
46091;DHT22;31826;53.572;10.170;2023-05-17T00:50:55;8.80;99.90
46091;DHT22;31826;53.572;10.170;2023-05-17T00:53:23;9.00;99.90
46091;DHT22;31826;53.572;10.170;2023-05-17T00:55:48;8.80;99.90
46091;DHT22;31826;53.572;10.170;2023-05-17T00:58:15;8.70;99.90
46091;DHT22;31826;53.572;10.170;2023-05-17T01:00:41;8.80;99.90
46091;DHT22;31826;53.572;10.170;2023-05-17T01:03:07;8.90;99.90
46091;DHT22;31826;53.572;10.170;2023-05-17T01:05:33;9.00;99.90
46091;DHT22;31826;53.572;10.170;2023-05-17T01:07:58;9.00;99.90
46091;DHT22;31826;53.572;10.170;2023-05-17T01:10:35;9.10;99.90
46091;DHT22;31826;53.572;10.170;2023-05-17T01:13:08;9.20;99.90
46091;DHT22;31826;53.572;10.170;2023-05-17T01:15:42;9.30;99.90
46091;DHT22;31826;53.572;10.170;2023-05-17T01:20:46;9.60;99.90
46091;DHT22;31826;53.572;10.170;2023-05-17T01:25:56;9.70;99.90
46091;DHT22;31826;53.572;10.170;2023-05-17T01:28:26;9.70;99.90
46091;DHT22;31826;53.572;10.170;2023-05-17T01:30:54;9.60;99.90
46091;DHT22;31826;53.572;10.170;2023-05-17T01:33:22;9.40;99.90
46091;DHT22;31826;53.572;10.170;2023-05-17T01:35:48;9.20;99.90
46091;DHT22;31826;53.572;10.170;2023-05-17T01:38:14;9.20;99.90
46091;DHT22;31826;53.572;10.170;2023-05-17T01:40:47;9.10;99.90
46091;DHT22;31826;53.572;10.170;2023-05-17T01:43:21;9.10;99.90
46091;DHT22;31826;53.572;10.170;2023-05-17T01:46:18;9.00;99.90
46091;DHT22;31826;53.572;10.170;2023-05-17T01:49:07;9.00;99.90
46091;DHT22;31826;53.572;10.170;2023-05-17T01:51:38;8.90;99.90
46091;DHT22;31826;53.572;10.170;2023-05-17T01:54:09;8.90;99.90
46091;DHT22;31826;53.572;10.170;2023-05-17T01:56:41;8.90;99.90
46091;DHT22;31826;53.572;10.170;2023-05-17T01:59:10;8.90;99.90
46091;DHT22;31826;53.572;10.170;2023-05-17T02:01:40;8.90;99.90
46091;DHT22;31826;53.572;10.170;2023-05-17T02:04:06;8.80;99.90
46091;DHT22;31826;53.572;10.170;2023-05-17T02:06:34;8.60;99.90
46091;DHT22;31826;53.572;10.170;2023-05-17T02:08:59;8.70;99.90
46091;DHT22;31826;53.572;10.170;2023-05-17T02:11:27;8.60;99.90
46091;DHT22;31826;53.572;10.170;2023-05-17T02:13:52;8.50;99.90
46091;DHT22;31826;53.572;10.170;2023-05-17T02:16:18;8.50;99.90
46091;DHT22;31826;53.572;10.170;2023-05-17T02:18:44;8.40;99.90
46091;DHT22;31826;53.572;10.170;2023-05-17T02:21:09;8.30;99.90
46091;DHT22;31826;53.572;10.170;2023-05-17T02:23:37;8.30;99.90
46091;DHT22;31826;53.572;10.170;2023-05-17T02:26:03;8.20;99.90
46091;DHT22;31826;53.572;10.170;2023-05-17T02:28:28;8.40;99.90
46091;DHT22;31826;53.572;10.170;2023-05-17T02:30:54;8.40;99.90
46091;DHT22;31826;53.572;10.170;2023-05-17T02:33:21;8.50;99.90
46091;DHT22;31826;53.572;10.170;2023-05-17T02:35:48;8.30;99.90
46091;DHT22;31826;53.572;10.170;2023-05-17T02:38:14;8.20;99.90
46091;DHT22;31826;53.572;10.170;2023-05-17T02:40:41;8.10;99.90
46091;DHT22;31826;53.572;10.170;2023-05-17T02:43:06;8.20;99.90
46091;DHT22;31826;53.572;10.170;2023-05-17T02:45:32;8.10;99.90
46091;DHT22;31826;53.572;10.170;2023-05-17T02:47:58;8.10;99.90
46091;DHT22;31826;53.572;10.170;2023-05-17T02:50:23;8.10;99.90
46091;DHT22;31826;53.572;10.170;2023-05-17T02:52:49;8.10;99.90
46091;DHT22;31826;53.572;10.170;2023-05-17T02:55:15;8.10;99.90
46091;DHT22;31826;53.572;10.170;2023-05-17T02:57:41;8.10;99.90
46091;DHT22;31826;53.572;10.170;2023-05-17T03:00:07;8.10;99.90
46091;DHT22;31826;53.572;10.170;2023-05-17T03:02:34;8.10;99.90
46091;DHT22;31826;53.572;10.170;2023-05-17T03:04:59;8.10;99.90
46091;DHT22;31826;53.572;10.170;2023-05-17T03:07:25;8.10;99.90
46091;DHT22;31826;53.572;10.170;2023-05-17T03:09:51;8.00;99.90
46091;DHT22;31826;53.572;10.170;2023-05-17T03:12:17;7.90;99.90
46091;DHT22;31826;53.572;10.170;2023-05-17T03:14:42;8.00;99.90
46091;DHT22;31826;53.572;10.170;2023-05-17T03:17:08;7.90;99.90
46091;DHT22;31826;53.572;10.170;2023-05-17T03:19:34;7.90;99.90
46091;DHT22;31826;53.572;10.170;2023-05-17T03:21:59;8.00;99.90
46091;DHT22;31826;53.572;10.170;2023-05-17T03:24:25;8.00;99.90
46091;DHT22;31826;53.572;10.170;2023-05-17T03:26:51;8.00;99.90
46091;DHT22;31826;53.572;10.170;2023-05-17T03:29:16;8.00;99.90
46091;DHT22;31826;53.572;10.170;2023-05-17T03:31:42;8.00;99.90
46091;DHT22;31826;53.572;10.170;2023-05-17T03:34:08;8.10;99.90
46091;DHT22;31826;53.572;10.170;2023-05-17T03:36:34;8.00;99.90
46091;DHT22;31826;53.572;10.170;2023-05-17T03:39:00;8.00;99.90
46091;DHT22;31826;53.572;10.170;2023-05-17T03:41:25;7.90;99.90
46091;DHT22;31826;53.572;10.170;2023-05-17T03:43:51;7.90;99.90
46091;DHT22;31826;53.572;10.170;2023-05-17T03:46:17;7.80;99.90
46091;DHT22;31826;53.572;10.170;2023-05-17T03:48:42;7.80;99.90
46091;DHT22;31826;53.572;10.170;2023-05-17T03:51:08;7.70;99.90
46091;DHT22;31826;53.572;10.170;2023-05-17T03:53:34;7.80;99.90
46091;DHT22;31826;53.572;10.170;2023-05-17T03:56:05;7.70;99.90
46091;DHT22;31826;53.572;10.170;2023-05-17T03:58:31;7.60;99.90
46091;DHT22;31826;53.572;10.170;2023-05-17T04:00:57;7.50;99.90
46091;DHT22;31826;53.572;10.170;2023-05-17T04:03:22;7.50;99.90
46091;DHT22;31826;53.572;10.170;2023-05-17T04:05:48;7.60;99.90
46091;DHT22;31826;53.572;10.170;2023-05-17T04:08:15;7.60;99.90
46091;DHT22;31826;53.572;10.170;2023-05-17T04:10:40;7.70;99.90
46091;DHT22;31826;53.572;10.170;2023-05-17T04:13:09;7.70;99.90
46091;DHT22;31826;53.572;10.170;2023-05-17T04:15:35;7.70;99.90
46091;DHT22;31826;53.572;10.170;2023-05-17T04:18:01;7.90;99.90
46091;DHT22;31826;53.572;10.170;2023-05-17T04:20:27;7.90;99.90
46091;DHT22;31826;53.572;10.170;2023-05-17T04:22:52;7.90;99.90
46091;DHT22;31826;53.572;10.170;2023-05-17T04:25:18;7.90;99.90
46091;DHT22;31826;53.572;10.170;2023-05-17T04:27:44;7.80;99.90
46091;DHT22;31826;53.572;10.170;2023-05-17T04:30:11;8.00;99.90
46091;DHT22;31826;53.572;10.170;2023-05-17T04:32:37;7.90;99.90
46091;DHT22;31826;53.572;10.170;2023-05-17T04:35:03;8.00;99.90
46091;DHT22;31826;53.572;10.170;2023-05-17T04:37:29;8.10;99.90
46091;DHT22;31826;53.572;10.170;2023-05-17T04:39:55;8.10;99.90
46091;DHT22;31826;53.572;10.170;2023-05-17T04:42:23;8.00;99.90
46091;DHT22;31826;53.572;10.170;2023-05-17T04:44:48;8.10;99.90
46091;DHT22;31826;53.572;10.170;2023-05-17T04:47:14;8.10;99.90
46091;DHT22;31826;53.572;10.170;2023-05-17T04:49:40;8.10;99.90
46091;DHT22;31826;53.572;10.170;2023-05-17T04:52:06;8.10;99.90
46091;DHT22;31826;53.572;10.170;2023-05-17T04:54:31;8.20;99.90
46091;DHT22;31826;53.572;10.170;2023-05-17T04:56:57;8.30;99.90
46091;DHT22;31826;53.572;10.170;2023-05-17T04:59:23;8.40;99.90
46091;DHT22;31826;53.572;10.170;2023-05-17T05:01:48;8.50;99.90
46091;DHT22;31826;53.572;10.170;2023-05-17T05:04:14;8.50;99.90
46091;DHT22;31826;53.572;10.170;2023-05-17T05:06:39;8.60;99.90
46091;DHT22;31826;53.572;10.170;2023-05-17T05:09:05;8.60;99.90
46091;DHT22;31826;53.572;10.170;2023-05-17T05:11:31;8.60;99.90
46091;DHT22;31826;53.572;10.170;2023-05-17T05:13:57;8.70;99.90
46091;DHT22;31826;53.572;10.170;2023-05-17T05:16:26;8.70;99.90
46091;DHT22;31826;53.572;10.170;2023-05-17T05:18:51;8.70;99.90
46091;DHT22;31826;53.572;10.170;2023-05-17T05:21:17;8.80;99.90
46091;DHT22;31826;53.572;10.170;2023-05-17T05:23:43;8.70;99.90
46091;DHT22;31826;53.572;10.170;2023-05-17T05:26:08;8.90;99.90
46091;DHT22;31826;53.572;10.170;2023-05-17T05:28:34;9.00;99.90
46091;DHT22;31826;53.572;10.170;2023-05-17T05:31:00;9.10;99.90
46091;DHT22;31826;53.572;10.170;2023-05-17T05:33:26;9.40;99.90
46091;DHT22;31826;53.572;10.170;2023-05-17T05:35:51;9.60;99.90
46091;DHT22;31826;53.572;10.170;2023-05-17T05:38:17;9.50;99.90
46091;DHT22;31826;53.572;10.170;2023-05-17T05:40:45;9.70;99.90
46091;DHT22;31826;53.572;10.170;2023-05-17T05:43:12;9.70;99.90
46091;DHT22;31826;53.572;10.170;2023-05-17T05:45:38;9.60;99.90
46091;DHT22;31826;53.572;10.170;2023-05-17T05:48:10;9.40;99.90
46091;DHT22;31826;53.572;10.170;2023-05-17T05:50:36;9.40;99.90
46091;DHT22;31826;53.572;10.170;2023-05-17T05:53:02;9.30;99.90
46091;DHT22;31826;53.572;10.170;2023-05-17T05:55:28;9.20;99.90
46091;DHT22;31826;53.572;10.170;2023-05-17T05:57:53;9.20;99.90
46091;DHT22;31826;53.572;10.170;2023-05-17T06:00:19;9.10;99.90
46091;DHT22;31826;53.572;10.170;2023-05-17T06:02:45;9.10;99.90
46091;DHT22;31826;53.572;10.170;2023-05-17T06:05:11;9.10;99.90
46091;DHT22;31826;53.572;10.170;2023-05-17T06:07:36;9.10;99.90
46091;DHT22;31826;53.572;10.170;2023-05-17T06:10:02;9.10;99.90
46091;DHT22;31826;53.572;10.170;2023-05-17T06:12:28;9.20;99.90
46091;DHT22;31826;53.572;10.170;2023-05-17T06:14:53;9.30;99.90
46091;DHT22;31826;53.572;10.170;2023-05-17T06:17:19;9.30;99.90
46091;DHT22;31826;53.572;10.170;2023-05-17T06:19:45;9.40;99.90
46091;DHT22;31826;53.572;10.170;2023-05-17T06:22:13;9.60;99.90
46091;DHT22;31826;53.572;10.170;2023-05-17T06:24:39;9.70;99.90
46091;DHT22;31826;53.572;10.170;2023-05-17T06:27:05;9.90;99.90
46091;DHT22;31826;53.572;10.170;2023-05-17T06:29:31;9.70;99.90
46091;DHT22;31826;53.572;10.170;2023-05-17T06:31:57;9.90;99.90
46091;DHT22;31826;53.572;10.170;2023-05-17T06:34:24;9.70;99.90
46091;DHT22;31826;53.572;10.170;2023-05-17T06:36:50;9.70;99.90
46091;DHT22;31826;53.572;10.170;2023-05-17T06:39:16;9.80;99.90
46091;DHT22;31826;53.572;10.170;2023-05-17T06:41:42;9.80;99.90
46091;DHT22;31826;53.572;10.170;2023-05-17T06:44:08;9.60;99.90
46091;DHT22;31826;53.572;10.170;2023-05-17T06:46:33;9.80;99.90
46091;DHT22;31826;53.572;10.170;2023-05-17T06:48:59;10.00;99.90
46091;DHT22;31826;53.572;10.170;2023-05-17T06:51:25;10.40;99.90
46091;DHT22;31826;53.572;10.170;2023-05-17T06:53:50;10.40;99.90
46091;DHT22;31826;53.572;10.170;2023-05-17T06:56:16;10.40;99.90
46091;DHT22;31826;53.572;10.170;2023-05-17T06:58:42;10.50;99.90
46091;DHT22;31826;53.572;10.170;2023-05-17T07:01:07;10.50;99.90
46091;DHT22;31826;53.572;10.170;2023-05-17T07:03:33;10.60;97.30
46091;DHT22;31826;53.572;10.170;2023-05-17T07:06:00;10.90;99.00
46091;DHT22;31826;53.572;10.170;2023-05-17T07:08:26;11.00;96.70
46091;DHT22;31826;53.572;10.170;2023-05-17T07:10:52;11.20;98.00
46091;DHT22;31826;53.572;10.170;2023-05-17T07:13:18;11.20;98.60
46091;DHT22;31826;53.572;10.170;2023-05-17T07:15:44;11.40;99.10
46091;DHT22;31826;53.572;10.170;2023-05-17T07:18:09;11.30;95.70
46091;DHT22;31826;53.572;10.170;2023-05-17T07:20:35;11.40;98.40
46091;DHT22;31826;53.572;10.170;2023-05-17T07:23:01;11.40;96.00
46091;DHT22;31826;53.572;10.170;2023-05-17T07:25:27;11.00;94.60
46091;DHT22;31826;53.572;10.170;2023-05-17T07:27:52;11.00;98.60
46091;DHT22;31826;53.572;10.170;2023-05-17T07:30:18;11.10;97.10
46091;DHT22;31826;53.572;10.170;2023-05-17T07:32:44;11.30;98.70
46091;DHT22;31826;53.572;10.170;2023-05-17T07:35:09;11.30;97.20
46091;DHT22;31826;53.572;10.170;2023-05-17T07:37:35;11.20;95.30
46091;DHT22;31826;53.572;10.170;2023-05-17T07:40:01;11.00;95.30
46091;DHT22;31826;53.572;10.170;2023-05-17T07:42:27;11.10;96.70
46091;DHT22;31826;53.572;10.170;2023-05-17T07:44:52;10.80;94.90
46091;DHT22;31826;53.572;10.170;2023-05-17T07:47:18;10.90;97.40
46091;DHT22;31826;53.572;10.170;2023-05-17T07:49:44;10.70;94.30
46091;DHT22;31826;53.572;10.170;2023-05-17T07:52:09;10.90;97.30
46091;DHT22;31826;53.572;10.170;2023-05-17T07:54:35;10.80;94.00
46091;DHT22;31826;53.572;10.170;2023-05-17T07:57:01;10.90;94.70
46091;DHT22;31826;53.572;10.170;2023-05-17T07:59:27;11.30;95.90
46091;DHT22;31826;53.572;10.170;2023-05-17T08:01:53;11.50;94.10
46091;DHT22;31826;53.572;10.170;2023-05-17T08:04:18;11.70;97.60
46091;DHT22;31826;53.572;10.170;2023-05-17T08:06:44;12.00;96.40
46091;DHT22;31826;53.572;10.170;2023-05-17T08:09:11;12.10;94.30
46091;DHT22;31826;53.572;10.170;2023-05-17T08:11:37;11.90;95.10
46091;DHT22;31826;53.572;10.170;2023-05-17T08:14:13;11.80;95.10
46091;DHT22;31826;53.572;10.170;2023-05-17T08:16:40;11.50;94.60
46091;DHT22;31826;53.572;10.170;2023-05-17T08:19:06;11.60;95.90
46091;DHT22;31826;53.572;10.170;2023-05-17T08:21:32;11.70;96.90
46091;DHT22;31826;53.572;10.170;2023-05-17T08:23:58;12.10;97.30
46091;DHT22;31826;53.572;10.170;2023-05-17T08:26:23;12.40;97.20
46091;DHT22;31826;53.572;10.170;2023-05-17T08:28:49;12.70;96.90
46091;DHT22;31826;53.572;10.170;2023-05-17T08:31:15;12.90;96.10
46091;DHT22;31826;53.572;10.170;2023-05-17T08:33:40;13.10;95.80
46091;DHT22;31826;53.572;10.170;2023-05-17T08:36:07;13.30;96.50
46091;DHT22;31826;53.572;10.170;2023-05-17T08:38:33;13.20;94.80
46091;DHT22;31826;53.572;10.170;2023-05-17T08:40:59;13.20;96.10
46091;DHT22;31826;53.572;10.170;2023-05-17T08:43:27;13.20;95.90
46091;DHT22;31826;53.572;10.170;2023-05-17T08:45:53;13.00;95.70
46091;DHT22;31826;53.572;10.170;2023-05-17T08:48:21;13.00;94.80
46091;DHT22;31826;53.572;10.170;2023-05-17T08:50:49;12.50;92.70
46091;DHT22;31826;53.572;10.170;2023-05-17T08:53:16;12.20;92.80
46091;DHT22;31826;53.572;10.170;2023-05-17T08:55:45;11.90;92.40
46091;DHT22;31826;53.572;10.170;2023-05-17T08:58:18;12.10;92.30
46091;DHT22;31826;53.572;10.170;2023-05-17T09:00:45;12.00;92.40
46091;DHT22;31826;53.572;10.170;2023-05-17T09:03:15;12.20;94.40
46091;DHT22;31826;53.572;10.170;2023-05-17T09:05:45;12.50;93.90
46091;DHT22;31826;53.572;10.170;2023-05-17T09:08:11;13.00;94.10
46091;DHT22;31826;53.572;10.170;2023-05-17T09:10:41;13.20;93.60
46091;DHT22;31826;53.572;10.170;2023-05-17T09:13:11;13.00;91.60
46091;DHT22;31826;53.572;10.170;2023-05-17T09:15:43;12.90;91.70
46091;DHT22;31826;53.572;10.170;2023-05-17T09:18:10;13.20;92.70
46091;DHT22;31826;53.572;10.170;2023-05-17T09:20:39;13.30;93.70
46091;DHT22;31826;53.572;10.170;2023-05-17T09:23:07;13.70;92.30
46091;DHT22;31826;53.572;10.170;2023-05-17T09:25:34;13.40;90.90
46091;DHT22;31826;53.572;10.170;2023-05-17T09:28:05;12.90;91.40
46091;DHT22;31826;53.572;10.170;2023-05-17T09:30:34;13.10;94.10
46091;DHT22;31826;53.572;10.170;2023-05-17T09:33:09;13.40;94.00
46091;DHT22;31826;53.572;10.170;2023-05-17T09:35:36;13.70;93.30
46091;DHT22;31826;53.572;10.170;2023-05-17T09:38:09;13.90;93.20
46091;DHT22;31826;53.572;10.170;2023-05-17T09:40:40;13.60;90.90
46091;DHT22;31826;53.572;10.170;2023-05-17T09:43:06;13.60;93.00
46091;DHT22;31826;53.572;10.170;2023-05-17T09:45:33;13.80;94.00
46091;DHT22;31826;53.572;10.170;2023-05-17T09:48:17;14.00;91.70
46091;DHT22;31826;53.572;10.170;2023-05-17T09:50:50;14.20;93.60
46091;DHT22;31826;53.572;10.170;2023-05-17T09:53:31;13.90;91.10
46091;DHT22;31826;53.572;10.170;2023-05-17T09:56:03;13.80;92.50
46091;DHT22;31826;53.572;10.170;2023-05-17T09:58:35;14.50;94.00
46091;DHT22;31826;53.572;10.170;2023-05-17T10:01:02;14.80;90.40
46091;DHT22;31826;53.572;10.170;2023-05-17T10:03:37;14.80;90.50
46091;DHT22;31826;53.572;10.170;2023-05-17T10:06:07;15.00;89.80
46091;DHT22;31826;53.572;10.170;2023-05-17T10:08:36;14.90;91.30
46091;DHT22;31826;53.572;10.170;2023-05-17T10:11:08;15.30;92.40
46091;DHT22;31826;53.572;10.170;2023-05-17T10:13:45;15.40;88.00
46091;DHT22;31826;53.572;10.170;2023-05-17T10:16:14;15.10;87.10
46091;DHT22;31826;53.572;10.170;2023-05-17T10:18:40;14.60;90.00
46091;DHT22;31826;53.572;10.170;2023-05-17T10:21:06;14.60;90.10
46091;DHT22;31826;53.572;10.170;2023-05-17T10:23:33;14.40;89.10
46091;DHT22;31826;53.572;10.170;2023-05-17T10:25:59;14.00;87.10
46091;DHT22;31826;53.572;10.170;2023-05-17T10:28:26;14.00;88.40
46091;DHT22;31826;53.572;10.170;2023-05-17T10:30:53;14.10;88.20
46091;DHT22;31826;53.572;10.170;2023-05-17T10:33:20;14.00;89.30
46091;DHT22;31826;53.572;10.170;2023-05-17T10:35:49;13.70;87.60
46091;DHT22;31826;53.572;10.170;2023-05-17T10:38:16;14.00;90.20
46091;DHT22;31826;53.572;10.170;2023-05-17T10:40:43;14.50;91.10
46091;DHT22;31826;53.572;10.170;2023-05-17T10:43:10;14.70;86.90
46091;DHT22;31826;53.572;10.170;2023-05-17T10:45:36;14.80;90.00
46091;DHT22;31826;53.572;10.170;2023-05-17T10:48:05;15.20;89.50
46091;DHT22;31826;53.572;10.170;2023-05-17T10:50:34;14.90;87.90
46091;DHT22;31826;53.572;10.170;2023-05-17T10:53:01;14.90;89.60
46091;DHT22;31826;53.572;10.170;2023-05-17T10:55:40;14.50;89.90
46091;DHT22;31826;53.572;10.170;2023-05-17T11:00:40;15.20;91.50
46091;DHT22;31826;53.572;10.170;2023-05-17T11:03:14;16.00;90.90
46091;DHT22;31826;53.572;10.170;2023-05-17T11:05:43;15.50;86.50
46091;DHT22;31826;53.572;10.170;2023-05-17T11:08:14;15.80;88.80
46091;DHT22;31826;53.572;10.170;2023-05-17T11:11:09;15.90;86.00
46091;DHT22;31826;53.572;10.170;2023-05-17T11:13:53;15.50;90.30
46091;DHT22;31826;53.572;10.170;2023-05-17T11:16:21;16.20;90.20
46091;DHT22;31826;53.572;10.170;2023-05-17T11:18:54;16.00;85.80
46091;DHT22;31826;53.572;10.170;2023-05-17T11:21:27;16.00;90.00
46091;DHT22;31826;53.572;10.170;2023-05-17T11:23:54;15.80;88.80
46091;DHT22;31826;53.572;10.170;2023-05-17T11:26:33;15.90;90.70
46091;DHT22;31826;53.572;10.170;2023-05-17T11:29:06;15.90;89.80
46091;DHT22;31826;53.572;10.170;2023-05-17T11:31:34;15.60;90.60
46091;DHT22;31826;53.572;10.170;2023-05-17T11:34:03;16.10;91.50
46091;DHT22;31826;53.572;10.170;2023-05-17T11:36:30;15.60;90.50
46091;DHT22;31826;53.572;10.170;2023-05-17T11:39:13;15.70;91.10
46091;DHT22;31826;53.572;10.170;2023-05-17T11:41:47;16.10;90.50
46091;DHT22;31826;53.572;10.170;2023-05-17T11:44:13;16.10;90.00
46091;DHT22;31826;53.572;10.170;2023-05-17T11:46:40;16.20;91.20
46091;DHT22;31826;53.572;10.170;2023-05-17T11:49:09;16.70;87.30
46091;DHT22;31826;53.572;10.170;2023-05-17T11:51:35;17.50;89.00
46091;DHT22;31826;53.572;10.170;2023-05-17T11:54:02;17.60;85.50
46091;DHT22;31826;53.572;10.170;2023-05-17T11:56:39;17.10;84.30
46091;DHT22;31826;53.572;10.170;2023-05-17T11:59:05;17.40;89.90
46091;DHT22;31826;53.572;10.170;2023-05-17T12:01:44;17.20;87.10
46091;DHT22;31826;53.572;10.170;2023-05-17T12:04:10;16.40;85.50
46091;DHT22;31826;53.572;10.170;2023-05-17T12:06:36;15.80;89.10
46091;DHT22;31826;53.572;10.170;2023-05-17T12:09:02;15.60;87.40
46091;DHT22;31826;53.572;10.170;2023-05-17T12:11:30;15.60;90.70
46091;DHT22;31826;53.572;10.170;2023-05-17T12:13:56;16.30;90.20
46091;DHT22;31826;53.572;10.170;2023-05-17T12:16:22;16.70;85.60
46091;DHT22;31826;53.572;10.170;2023-05-17T12:18:50;16.20;83.80
46091;DHT22;31826;53.572;10.170;2023-05-17T12:21:17;15.90;83.20
46091;DHT22;31826;53.572;10.170;2023-05-17T12:23:44;15.80;84.00
46091;DHT22;31826;53.572;10.170;2023-05-17T12:26:12;16.20;85.30
46091;DHT22;31826;53.572;10.170;2023-05-17T12:28:41;16.40;86.60
46091;DHT22;31826;53.572;10.170;2023-05-17T12:31:14;16.90;87.00
46091;DHT22;31826;53.572;10.170;2023-05-17T12:33:42;17.30;84.90
46091;DHT22;31826;53.572;10.170;2023-05-17T12:36:11;17.30;86.40
46091;DHT22;31826;53.572;10.170;2023-05-17T12:38:42;17.30;85.00
46091;DHT22;31826;53.572;10.170;2023-05-17T12:41:10;16.80;86.50
46091;DHT22;31826;53.572;10.170;2023-05-17T12:43:39;16.30;85.20
46091;DHT22;31826;53.572;10.170;2023-05-17T12:46:13;16.50;87.80
46091;DHT22;31826;53.572;10.170;2023-05-17T12:48:42;17.00;89.60
46091;DHT22;31826;53.572;10.170;2023-05-17T12:51:18;17.30;86.60
46091;DHT22;31826;53.572;10.170;2023-05-17T12:53:52;17.90;86.20
46091;DHT22;31826;53.572;10.170;2023-05-17T12:56:23;17.70;81.60
46091;DHT22;31826;53.572;10.170;2023-05-17T13:01:48;16.50;80.90
46091;DHT22;31826;53.572;10.170;2023-05-17T13:04:16;16.30;81.10
46091;DHT22;31826;53.572;10.170;2023-05-17T13:06:53;16.50;81.70
46091;DHT22;31826;53.572;10.170;2023-05-17T13:09:21;16.50;80.70
46091;DHT22;31826;53.572;10.170;2023-05-17T13:11:56;16.60;81.60
46091;DHT22;31826;53.572;10.170;2023-05-17T13:14:44;16.20;81.60
46091;DHT22;31826;53.572;10.170;2023-05-17T13:17:12;15.70;81.10
46091;DHT22;31826;53.572;10.170;2023-05-17T13:19:40;16.00;84.10
46091;DHT22;31826;53.572;10.170;2023-05-17T13:22:06;15.70;81.90
46091;DHT22;31826;53.572;10.170;2023-05-17T13:24:34;16.20;87.60
46091;DHT22;31826;53.572;10.170;2023-05-17T13:27:00;16.60;83.90
46091;DHT22;31826;53.572;10.170;2023-05-17T13:29:26;16.10;83.10
46091;DHT22;31826;53.572;10.170;2023-05-17T13:31:52;16.10;82.30
46091;DHT22;31826;53.572;10.170;2023-05-17T13:34:18;16.20;85.00
46091;DHT22;31826;53.572;10.170;2023-05-17T13:36:47;16.40;81.40
46091;DHT22;31826;53.572;10.170;2023-05-17T13:39:14;16.60;82.00
46091;DHT22;31826;53.572;10.170;2023-05-17T13:41:40;15.60;82.10
46091;DHT22;31826;53.572;10.170;2023-05-17T13:44:06;15.50;84.40
46091;DHT22;31826;53.572;10.170;2023-05-17T13:46:32;15.20;84.70
46091;DHT22;31826;53.572;10.170;2023-05-17T13:48:58;14.90;84.90
46091;DHT22;31826;53.572;10.170;2023-05-17T13:51:24;15.70;87.60
46091;DHT22;31826;53.572;10.170;2023-05-17T13:53:50;15.80;81.80
46091;DHT22;31826;53.572;10.170;2023-05-17T13:56:16;15.60;82.40
46091;DHT22;31826;53.572;10.170;2023-05-17T13:58:42;15.70;84.30
46091;DHT22;31826;53.572;10.170;2023-05-17T14:01:08;16.20;85.90
46091;DHT22;31826;53.572;10.170;2023-05-17T14:03:34;16.70;85.50
46091;DHT22;31826;53.572;10.170;2023-05-17T14:06:04;16.40;82.50
46091;DHT22;31826;53.572;10.170;2023-05-17T14:08:30;15.90;86.00
46091;DHT22;31826;53.572;10.170;2023-05-17T14:10:56;15.70;88.30
46091;DHT22;31826;53.572;10.170;2023-05-17T14:13:22;16.00;86.50
46091;DHT22;31826;53.572;10.170;2023-05-17T14:15:48;15.50;85.00
46091;DHT22;31826;53.572;10.170;2023-05-17T14:18:13;15.20;83.40
46091;DHT22;31826;53.572;10.170;2023-05-17T14:20:39;14.70;85.50
46091;DHT22;31826;53.572;10.170;2023-05-17T14:23:05;14.40;86.60
46091;DHT22;31826;53.572;10.170;2023-05-17T14:25:31;14.60;89.60
46091;DHT22;31826;53.572;10.170;2023-05-17T14:27:57;14.70;85.50
46091;DHT22;31826;53.572;10.170;2023-05-17T14:30:23;14.70;85.00
46091;DHT22;31826;53.572;10.170;2023-05-17T14:32:48;14.50;87.50
46091;DHT22;31826;53.572;10.170;2023-05-17T14:35:15;14.80;90.10
46091;DHT22;31826;53.572;10.170;2023-05-17T14:37:43;14.80;85.00
46091;DHT22;31826;53.572;10.170;2023-05-17T14:40:09;14.80;87.60
46091;DHT22;31826;53.572;10.170;2023-05-17T14:42:36;15.20;86.30
46091;DHT22;31826;53.572;10.170;2023-05-17T14:45:03;14.70;83.50
46091;DHT22;31826;53.572;10.170;2023-05-17T14:47:29;14.50;85.80
46091;DHT22;31826;53.572;10.170;2023-05-17T14:49:55;14.10;86.50
46091;DHT22;31826;53.572;10.170;2023-05-17T14:52:20;14.10;86.40
46091;DHT22;31826;53.572;10.170;2023-05-17T14:54:46;14.20;88.90
46091;DHT22;31826;53.572;10.170;2023-05-17T14:57:12;14.90;90.00
46091;DHT22;31826;53.572;10.170;2023-05-17T14:59:38;14.90;84.20
46091;DHT22;31826;53.572;10.170;2023-05-17T15:02:04;14.90;83.60
46091;DHT22;31826;53.572;10.170;2023-05-17T15:04:30;14.80;84.30
46091;DHT22;31826;53.572;10.170;2023-05-17T15:06:56;14.60;83.20
46091;DHT22;31826;53.572;10.170;2023-05-17T15:09:23;14.30;85.40
46091;DHT22;31826;53.572;10.170;2023-05-17T15:11:49;14.70;86.10
46091;DHT22;31826;53.572;10.170;2023-05-17T15:14:15;14.70;86.40
46091;DHT22;31826;53.572;10.170;2023-05-17T15:16:47;14.50;89.10
46091;DHT22;31826;53.572;10.170;2023-05-17T15:19:13;14.80;86.70
46091;DHT22;31826;53.572;10.170;2023-05-17T15:21:42;15.10;88.50
46091;DHT22;31826;53.572;10.170;2023-05-17T15:24:08;15.50;87.00
46091;DHT22;31826;53.572;10.170;2023-05-17T15:26:34;15.70;85.40
46091;DHT22;31826;53.572;10.170;2023-05-17T15:29:00;15.20;82.00
46091;DHT22;31826;53.572;10.170;2023-05-17T15:31:26;14.70;84.10
46091;DHT22;31826;53.572;10.170;2023-05-17T15:33:53;14.40;84.30
46091;DHT22;31826;53.572;10.170;2023-05-17T15:36:19;14.20;90.00